Time;durP1;ratioP1;P1;durP2;ratioP2;P2;SDS_P1;SDS_P2;PMS_P1;PMS_P2;Temp;Humidity;BMP_temperature;BMP_pressure;BME280_temperature;BME280_humidity;BME280_pressure;Samples;Min_cycle;Max_cycle;Signal;HPM_P1;HPM_P2
2022/05/30 00:00:17;;;;;;;8.70;1.60;;;11.30;99.90;;;;;;5084185;28;20016;-60
2022/05/30 00:02:43;;;;;;;8.10;1.88;;;11.00;99.90;;;;;;5093611;28;20028;-60
2022/05/30 00:05:11;;;;;;;9.02;2.33;;;11.10;99.90;;;;;;5093968;28;20030;-59
2022/05/30 00:07:37;;;;;;;10.63;2.20;;;11.00;99.90;;;;;;5091988;28;20033;-60
2022/05/30 00:10:05;;;;;;;9.48;2.08;;;10.70;99.90;;;;;;5092600;28;20022;-61
2022/05/30 00:12:30;;;;;;;5.90;1.58;;;10.80;99.90;;;;;;5094053;28;20020;-59
2022/05/30 00:14:56;;;;;;;7.18;1.50;;;10.90;99.90;;;;;;5090829;28;20093;-59
2022/05/30 00:17:22;;;;;;;8.35;2.10;;;10.80;99.90;;;;;;5102247;28;20028;-60
2022/05/30 00:19:47;;;;;;;12.77;2.45;;;10.80;99.90;;;;;;5093860;28;20693;-58
2022/05/30 00:22:14;;;;;;;7.25;1.73;;;10.90;99.90;;;;;;5088481;28;20024;-60
2022/05/30 00:24:41;;;;;;;7.72;1.85;;;10.80;99.90;;;;;;5093655;28;20051;-59
2022/05/30 00:27:08;;;;;;;8.48;1.88;;;10.70;99.90;;;;;;5077345;28;21073;-60
2022/05/30 00:29:34;;;;;;;9.70;1.90;;;10.60;99.90;;;;;;5088006;28;20028;-60
2022/05/30 00:31:59;;;;;;;9.82;1.80;;;10.50;99.90;;;;;;5081795;28;20032;-60
2022/05/30 00:34:26;;;;;;;6.60;1.55;;;10.40;99.90;;;;;;5095457;28;20016;-60
2022/05/30 00:36:52;;;;;;;10.07;2.10;;;10.40;99.90;;;;;;5076619;28;20057;-58
2022/05/30 00:39:18;;;;;;;8.38;2.20;;;10.30;99.90;;;;;;5088489;28;20140;-57
2022/05/30 00:41:43;;;;;;;9.68;2.13;;;10.60;99.90;;;;;;5087472;28;20024;-60
2022/05/30 00:44:09;;;;;;;9.77;1.70;;;10.70;99.90;;;;;;5080267;28;20040;-59
2022/05/30 00:46:34;;;;;;;8.25;2.05;;;10.60;99.90;;;;;;5074248;28;20059;-60
2022/05/30 00:49:10;;;;;;;7.50;1.77;;;10.70;99.90;;;;;;5085204;28;20731;-58
2022/05/30 00:51:45;;;;;;;6.70;1.67;;;10.60;99.90;;;;;;5084905;28;20043;-60
2022/05/30 00:54:14;;;;;;;7.18;1.70;;;10.80;99.90;;;;;;5084312;28;20031;-59
2022/05/30 00:56:44;;;;;;;8.10;2.00;;;10.70;99.90;;;;;;5079687;28;20133;-60
2022/05/30 00:59:10;;;;;;;9.63;1.98;;;10.90;99.90;;;;;;5081127;28;20016;-58
2022/05/30 01:01:36;;;;;;;9.02;2.08;;;10.70;99.90;;;;;;5094041;28;20107;-58
2022/05/30 01:06:52;;;;;;;13.20;2.00;;;10.70;99.90;;;;;;5088340;28;20042;-54
2022/05/30 01:09:22;;;;;;;9.80;2.50;;;10.70;99.90;;;;;;5091614;28;20155;-58
2022/05/30 01:12:06;;;;;;;9.32;2.20;;;10.60;99.90;;;;;;5097240;28;20035;-58
2022/05/30 01:14:35;;;;;;;9.73;2.40;;;10.70;99.90;;;;;;5073710;28;20024;-58
2022/05/30 01:17:03;;;;;;;6.32;1.90;;;10.70;99.90;;;;;;5082261;28;20530;-58
2022/05/30 01:19:43;;;;;;;10.82;2.58;;;10.60;99.90;;;;;;5094954;28;20016;-58
2022/05/30 01:22:36;;;;;;;8.75;2.28;;;10.90;99.90;;;;;;5092969;28;20460;-58
2022/05/30 01:25:41;;;;;;;8.95;1.83;;;11.10;99.90;;;;;;5085622;28;20116;-57
2022/05/30 01:28:22;;;;;;;12.93;2.53;;;10.90;99.90;;;;;;5095814;28;20517;-58
2022/05/30 01:30:49;;;;;;;11.38;2.42;;;10.80;99.90;;;;;;5084316;28;20674;-57
2022/05/30 01:33:15;;;;;;;9.07;2.08;;;11.20;99.90;;;;;;5079710;28;20031;-58
2022/05/30 01:35:41;;;;;;;12.63;2.40;;;11.30;99.90;;;;;;5080460;28;20531;-58
2022/05/30 01:38:07;;;;;;;12.43;2.47;;;11.20;99.90;;;;;;5084485;28;20035;-57
2022/05/30 01:40:33;;;;;;;9.13;2.47;;;11.10;99.90;;;;;;5095371;28;20027;-59
2022/05/30 01:42:59;;;;;;;11.25;2.53;;;11.20;99.90;;;;;;5086125;28;20028;-57
2022/05/30 01:45:25;;;;;;;9.70;2.17;;;11.30;99.90;;;;;;5097047;28;20032;-58
2022/05/30 01:47:51;;;;;;;9.95;2.90;;;11.20;99.90;;;;;;5095799;28;20126;-57
2022/05/30 01:50:18;;;;;;;10.32;2.50;;;10.80;99.90;;;;;;5083342;28;20197;-56
2022/05/30 01:52:44;;;;;;;9.52;2.13;;;10.80;99.90;;;;;;5098290;28;20027;-55
2022/05/30 01:55:10;;;;;;;15.23;2.60;;;10.90;99.90;;;;;;5073524;28;20036;-57
2022/05/30 01:57:35;;;;;;;11.05;2.20;;;10.50;99.90;;;;;;5092173;28;20072;-56
2022/05/30 02:00:01;;;;;;;7.43;2.10;;;10.40;99.90;;;;;;5083971;28;20029;-57
2022/05/30 02:02:26;;;;;;;12.02;2.42;;;10.40;99.90;;;;;;5088007;28;20012;-58
2022/05/30 02:04:53;;;;;;;9.60;2.53;;;10.30;99.90;;;;;;5087303;28;20020;-56
2022/05/30 02:07:19;;;;;;;10.73;2.30;;;10.30;99.90;;;;;;5086586;28;20034;-58
2022/05/30 02:09:44;;;;;;;9.90;2.50;;;10.40;99.90;;;;;;5093515;28;20032;-57
2022/05/30 02:12:11;;;;;;;7.47;2.55;;;10.10;99.90;;;;;;5098872;28;20425;-58
2022/05/30 02:14:37;;;;;;;11.48;2.80;;;10.20;99.90;;;;;;5097653;28;20649;-55
2022/05/30 02:17:04;;;;;;;9.38;2.58;;;10.20;99.90;;;;;;5102014;28;20111;-57
2022/05/30 02:19:32;;;;;;;8.80;2.08;;;10.10;99.90;;;;;;5093073;28;20020;-58
2022/05/30 02:22:00;;;;;;;11.30;2.30;;;10.20;99.90;;;;;;5089505;28;20031;-58
2022/05/30 02:24:26;;;;;;;8.95;2.35;;;10.50;99.90;;;;;;5089686;28;20078;-58
2022/05/30 02:26:52;;;;;;;12.55;2.40;;;10.60;99.90;;;;;;5093982;28;20059;-57
2022/05/30 02:29:18;;;;;;;10.95;2.42;;;10.20;99.90;;;;;;5090871;28;20045;-57
2022/05/30 02:31:43;;;;;;;10.63;2.63;;;10.20;99.90;;;;;;5091109;28;20648;-57
2022/05/30 02:36:55;;;;;;;9.57;2.38;;;10.00;99.90;;;;;;5090219;28;20066;-56
2022/05/30 02:39:22;;;;;;;9.95;2.30;;;9.90;99.90;;;;;;5089035;28;20016;-57
2022/05/30 02:41:49;;;;;;;8.45;2.35;;;10.10;99.90;;;;;;5086781;28;20099;-58
2022/05/30 02:44:19;;;;;;;10.35;2.60;;;10.20;99.90;;;;;;5098599;28;20012;-58
2022/05/30 02:46:53;;;;;;;9.63;2.60;;;10.40;99.90;;;;;;5093830;28;20461;-58
2022/05/30 02:49:19;;;;;;;7.38;1.92;;;10.30;99.90;;;;;;5098035;28;20695;-57
2022/05/30 02:51:45;;;;;;;9.23;2.30;;;10.10;99.90;;;;;;5085967;28;20023;-57
2022/05/30 02:54:12;;;;;;;9.27;2.35;;;10.30;99.90;;;;;;5095620;28;20031;-58
2022/05/30 02:56:38;;;;;;;10.43;2.42;;;10.30;99.90;;;;;;5093291;28;20045;-57
2022/05/30 02:59:04;;;;;;;7.90;2.42;;;10.00;99.90;;;;;;5090536;28;20039;-58
2022/05/30 03:01:31;;;;;;;8.68;2.28;;;9.90;99.90;;;;;;5090802;28;20501;-58
2022/05/30 03:03:57;;;;;;;11.50;2.50;;;9.80;99.90;;;;;;5093389;28;20031;-57
2022/05/30 03:06:24;;;;;;;10.13;2.60;;;10.00;99.90;;;;;;5084772;28;20548;-57
2022/05/30 03:08:50;;;;;;;9.20;2.30;;;10.10;99.90;;;;;;5098736;28;20080;-57
2022/05/30 03:11:16;;;;;;;6.93;2.15;;;9.90;99.90;;;;;;5094872;28;20089;-57
2022/05/30 03:13:42;;;;;;;8.77;2.20;;;9.90;99.90;;;;;;5092248;28;20028;-57
2022/05/30 03:16:07;;;;;;;7.57;2.20;;;9.90;99.90;;;;;;5088054;28;20057;-55
2022/05/30 03:18:33;;;;;;;6.70;2.10;;;10.20;99.90;;;;;;5087017;28;20705;-58
2022/05/30 03:20:59;;;;;;;8.93;2.17;;;10.30;99.90;;;;;;5082122;28;20523;-58
2022/05/30 03:23:24;;;;;;;15.40;2.80;;;10.30;99.90;;;;;;5088865;28;20115;-58
2022/05/30 03:25:50;;;;;;;5.03;1.58;;;10.10;99.90;;;;;;5095016;28;20024;-58
2022/05/30 03:28:15;;;;;;;11.25;2.22;;;10.00;99.90;;;;;;5083020;28;20483;-58
2022/05/30 03:30:41;;;;;;;10.40;2.10;;;10.00;99.90;;;;;;5089946;28;20028;-58
2022/05/30 03:33:08;;;;;;;6.78;1.83;;;10.10;99.90;;;;;;5085132;28;20038;-57
2022/05/30 03:35:35;;;;;;;11.25;2.42;;;10.10;99.90;;;;;;5099806;28;20020;-58
2022/05/30 03:38:00;;;;;;;9.60;2.20;;;10.00;99.90;;;;;;5098101;27;20019;-57
2022/05/30 03:40:27;;;;;;;6.53;1.90;;;10.10;99.90;;;;;;5101229;28;20107;-58
2022/05/30 03:42:53;;;;;;;8.77;2.53;;;10.30;99.90;;;;;;5089359;28;20016;-58
2022/05/30 03:45:19;;;;;;;7.97;2.10;;;10.20;99.90;;;;;;5095448;28;20020;-58
2022/05/30 03:47:45;;;;;;;7.63;2.03;;;9.70;99.90;;;;;;5088517;28;20043;-58
2022/05/30 03:50:19;;;;;;;9.00;2.50;;;9.90;99.90;;;;;;5083403;28;20106;-57
2022/05/30 03:52:45;;;;;;;10.95;1.80;;;10.10;99.90;;;;;;5085024;28;20503;-57
2022/05/30 03:55:14;;;;;;;8.85;2.00;;;10.00;99.90;;;;;;5078771;28;20035;-58
2022/05/30 03:57:40;;;;;;;7.07;1.83;;;10.20;99.90;;;;;;5086411;28;20122;-59
2022/05/30 04:00:09;;;;;;;9.15;2.30;;;10.40;99.90;;;;;;5088687;28;20027;-57
2022/05/30 04:02:34;;;;;;;9.15;2.20;;;10.50;99.90;;;;;;5085718;28;20438;-58
2022/05/30 04:05:00;;;;;;;10.48;2.20;;;10.30;99.90;;;;;;5085201;28;20149;-59
2022/05/30 04:07:26;;;;;;;7.50;1.95;;;10.10;99.90;;;;;;5087375;28;20400;-59
2022/05/30 04:09:52;;;;;;;7.30;2.10;;;10.10;99.90;;;;;;5086227;28;20447;-57
2022/05/30 04:12:22;;;;;;;6.47;1.70;;;10.10;99.90;;;;;;5084650;28;20028;-60
2022/05/30 04:14:59;;;;;;;7.22;1.83;;;9.70;99.90;;;;;;5087163;28;20040;-60
2022/05/30 04:17:26;;;;;;;9.88;2.42;;;9.80;99.90;;;;;;5102348;28;20045;-59
2022/05/30 04:19:51;;;;;;;6.75;1.98;;;10.00;99.90;;;;;;5094665;28;20055;-58
2022/05/30 04:22:18;;;;;;;7.57;2.17;;;9.90;99.90;;;;;;5090333;28;20018;-60
2022/05/30 04:24:44;;;;;;;9.73;1.98;;;9.80;99.90;;;;;;5079149;28;20530;-58
2022/05/30 04:27:09;;;;;;;7.55;2.13;;;9.70;99.90;;;;;;5081388;28;20800;-60
2022/05/30 04:29:36;;;;;;;7.78;2.38;;;9.80;99.90;;;;;;5089170;28;20059;-60
2022/05/30 04:32:03;;;;;;;13.25;2.65;;;10.10;99.90;;;;;;5087474;28;20388;-60
2022/05/30 04:34:30;;;;;;;7.38;2.42;;;9.90;99.90;;;;;;5084203;28;20432;-61
2022/05/30 04:36:55;;;;;;;8.48;2.15;;;9.90;99.90;;;;;;5083486;28;20028;-60
2022/05/30 04:39:21;;;;;;;14.70;2.22;;;10.00;99.90;;;;;;5091989;28;20026;-61
2022/05/30 04:41:47;;;;;;;8.52;2.20;;;9.80;99.90;;;;;;5093088;28;20082;-60
2022/05/30 04:44:12;;;;;;;11.13;2.40;;;9.90;99.90;;;;;;5092866;28;20023;-59
2022/05/30 04:46:38;;;;;;;10.02;2.17;;;9.90;99.90;;;;;;5087407;28;20072;-58
2022/05/30 04:49:03;;;;;;;9.13;2.50;;;9.90;99.90;;;;;;5077631;28;20503;-58
2022/05/30 04:51:29;;;;;;;10.77;2.80;;;10.00;99.90;;;;;;5091999;28;20039;-59
2022/05/30 04:53:55;;;;;;;10.75;2.80;;;10.20;99.90;;;;;;5085018;28;20039;-58
2022/05/30 04:56:21;;;;;;;11.32;2.75;;;10.10;99.90;;;;;;5079340;28;20051;-60
2022/05/30 04:58:47;;;;;;;7.47;2.78;;;10.10;99.90;;;;;;5088994;28;20111;-58
2022/05/30 05:01:13;;;;;;;9.63;2.80;;;10.40;99.90;;;;;;5085453;28;20110;-57
2022/05/30 05:03:40;;;;;;;14.50;2.65;;;10.20;99.90;;;;;;5093898;28;20035;-58
2022/05/30 05:06:09;;;;;;;15.13;3.05;;;10.10;99.90;;;;;;5081812;28;20737;-60
2022/05/30 05:08:43;;;;;;;10.80;3.30;;;10.10;99.90;;;;;;5089857;28;20457;-59
2022/05/30 05:11:11;;;;;;;14.65;3.40;;;10.10;99.90;;;;;;5080866;28;20142;-58
2022/05/30 05:13:37;;;;;;;14.30;3.38;;;10.10;99.90;;;;;;5094545;28;20032;-58
2022/05/30 05:16:03;;;;;;;11.23;2.70;;;10.50;99.90;;;;;;5075808;28;20061;-56
2022/05/30 05:18:28;;;;;;;11.93;3.28;;;10.50;99.90;;;;;;5081467;28;20031;-59
2022/05/30 05:20:54;;;;;;;8.90;3.00;;;10.60;99.90;;;;;;5088684;28;20023;-59
2022/05/30 05:23:19;;;;;;;10.32;2.95;;;10.70;99.90;;;;;;5103226;28;20019;-58
2022/05/30 05:25:45;;;;;;;11.43;2.85;;;10.70;99.90;;;;;;5097946;28;20023;-58
2022/05/30 05:28:10;;;;;;;15.73;3.65;;;10.50;99.90;;;;;;5095505;28;20058;-60
2022/05/30 05:30:40;;;;;;;13.95;3.25;;;10.40;99.90;;;;;;5085905;28;20028;-57
2022/05/30 05:33:06;;;;;;;11.77;3.28;;;10.60;99.90;;;;;;5093922;28;20036;-58
2022/05/30 05:35:32;;;;;;;14.50;3.67;;;10.50;99.90;;;;;;5094085;28;20067;-57
2022/05/30 05:37:57;;;;;;;14.25;3.35;;;10.40;99.90;;;;;;5090843;28;20106;-59
2022/05/30 05:40:24;;;;;;;9.63;3.55;;;10.60;99.90;;;;;;5092654;28;20018;-59
2022/05/30 05:42:49;;;;;;;11.65;2.90;;;10.60;99.90;;;;;;5094382;28;20441;-59
2022/05/30 05:45:15;;;;;;;13.30;3.38;;;10.70;99.90;;;;;;5093999;28;20021;-58
2022/05/30 05:47:40;;;;;;;9.63;3.08;;;10.60;99.90;;;;;;5084528;28;20516;-59
2022/05/30 05:50:06;;;;;;;10.85;2.92;;;10.80;99.90;;;;;;5084095;28;20036;-60
2022/05/30 05:52:32;;;;;;;11.55;2.70;;;10.60;99.90;;;;;;5090147;28;20038;-59
2022/05/30 05:54:58;;;;;;;12.27;3.38;;;10.80;99.90;;;;;;5079226;28;20028;-60
2022/05/30 05:57:27;;;;;;;13.38;2.97;;;10.70;99.90;;;;;;5080251;28;20843;-59
2022/05/30 05:59:53;;;;;;;10.88;3.25;;;10.90;99.90;;;;;;5088570;28;20024;-59
2022/05/30 06:02:19;;;;;;;12.38;3.33;;;11.10;99.90;;;;;;5083377;28;20349;-59
2022/05/30 06:04:45;;;;;;;12.90;2.83;;;11.20;99.90;;;;;;5078070;28;20069;-59
2022/05/30 06:07:11;;;;;;;11.13;3.20;;;11.60;99.90;;;;;;5089964;28;20024;-58
2022/05/30 06:09:38;;;;;;;11.45;2.80;;;11.40;99.90;;;;;;5097208;28;20120;-58
2022/05/30 06:12:04;;;;;;;21.17;11.27;;;11.60;99.90;;;;;;5088620;28;20205;-62
2022/05/30 06:14:30;;;;;;;13.07;5.28;;;11.70;99.90;;;;;;5082955;28;20023;-64
2022/05/30 06:16:56;;;;;;;11.50;2.90;;;11.40;99.90;;;;;;5092848;28;20536;-63
2022/05/30 06:19:22;;;;;;;12.70;2.75;;;11.60;99.90;;;;;;5070184;28;20039;-63
2022/05/30 06:21:48;;;;;;;10.52;2.33;;;11.60;99.90;;;;;;5073763;28;20025;-63
2022/05/30 06:24:14;;;;;;;10.57;1.92;;;11.50;99.90;;;;;;5072981;28;20044;-63
2022/05/30 06:26:42;;;;;;;6.47;1.70;;;11.60;99.90;;;;;;5082800;28;20032;-63
2022/05/30 06:29:08;;;;;;;8.18;1.85;;;11.70;99.90;;;;;;5074336;28;20503;-64
2022/05/30 06:31:33;;;;;;;9.48;1.67;;;11.60;99.90;;;;;;5071382;28;20078;-64
2022/05/30 06:34:01;;;;;;;11.20;1.95;;;11.70;99.90;;;;;;5079921;28;20032;-63
2022/05/30 06:36:27;;;;;;;12.05;2.50;;;11.50;99.90;;;;;;5085290;28;20062;-64
2022/05/30 06:38:54;;;;;;;8.43;1.73;;;11.60;99.90;;;;;;5078769;28;20063;-63
2022/05/30 06:41:25;;;;;;;8.55;2.25;;;11.70;99.90;;;;;;5090381;28;20061;-64
2022/05/30 06:43:58;;;;;;;5.72;1.80;;;11.70;99.90;;;;;;5084523;28;20040;-64
2022/05/30 06:46:24;;;;;;;8.40;2.50;;;11.70;99.90;;;;;;5078682;28;20102;-64
2022/05/30 06:48:54;;;;;;;9.50;2.30;;;12.00;99.90;;;;;;5079021;28;20489;-64
2022/05/30 06:51:20;;;;;;;12.63;2.42;;;12.00;99.90;;;;;;5084395;28;20498;-64
2022/05/30 06:53:46;;;;;;;11.43;2.65;;;12.10;99.90;;;;;;5086150;28;20028;-64
2022/05/30 06:56:18;;;;;;;15.60;2.78;;;12.20;99.90;;;;;;5089348;28;20034;-64
2022/05/30 06:58:45;;;;;;;11.13;2.33;;;12.00;99.90;;;;;;5097914;28;20016;-64
2022/05/30 07:01:11;;;;;;;6.55;1.90;;;12.00;99.90;;;;;;5086395;28;20378;-64
2022/05/30 07:03:37;;;;;;;9.82;2.40;;;12.00;99.90;;;;;;5078420;28;20043;-64
2022/05/30 07:06:15;;;;;;;9.18;2.58;;;12.30;99.90;;;;;;5077716;28;20516;-64
2022/05/30 07:08:43;;;;;;;8.88;2.35;;;12.40;99.90;;;;;;5081586;28;20032;-64
2022/05/30 07:11:09;;;;;;;12.68;2.55;;;12.30;99.90;;;;;;5084142;28;20533;-64
2022/05/30 07:13:35;;;;;;;9.30;2.28;;;11.80;99.90;;;;;;5087081;28;20021;-64
2022/05/30 07:16:01;;;;;;;10.90;2.80;;;11.90;99.90;;;;;;5083473;28;20035;-64
2022/05/30 07:18:27;;;;;;;8.18;2.88;;;12.10;99.90;;;;;;5090268;28;20009;-64
2022/05/30 07:21:04;;;;;;;7.20;2.40;;;12.20;99.90;;;;;;5081149;28;20432;-64
2022/05/30 07:23:31;;;;;;;7.75;2.72;;;12.50;99.90;;;;;;5091893;28;20472;-64
2022/05/30 07:25:58;;;;;;;8.57;2.78;;;12.50;99.90;;;;;;5087629;28;20028;-64
2022/05/30 07:28:28;;;;;;;10.98;2.22;;;12.50;99.90;;;;;;5095461;28;20038;-64
2022/05/30 07:31:10;;;;;;;7.93;2.13;;;12.30;99.90;;;;;;5091657;28;20039;-64
2022/05/30 07:33:37;;;;;;;7.20;1.92;;;12.60;99.90;;;;;;5077958;28;20096;-64
2022/05/30 07:36:08;;;;;;;9.32;1.95;;;12.90;99.90;;;;;;5089437;28;20052;-64
2022/05/30 07:38:34;;;;;;;8.95;1.95;;;13.30;99.90;;;;;;5085753;28;20043;-64
2022/05/30 07:41:00;;;;;;;8.50;1.80;;;13.20;99.90;;;;;;5096130;27;20036;-64
2022/05/30 07:43:26;;;;;;;10.82;2.03;;;;;;;;;;5089377;28;20029;-64
2022/05/30 07:45:51;;;;;;;6.38;1.77;;;13.30;99.90;;;;;;5087412;27;20020;-62
2022/05/30 07:48:17;;;;;;;10.07;1.90;;;12.80;99.90;;;;;;5085583;28;20419;-61
2022/05/30 07:50:42;;;;;;;10.70;1.88;;;12.60;99.90;;;;;;5084786;28;20081;-62
2022/05/30 07:53:08;;;;;;;8.90;1.80;;;12.50;99.90;;;;;;5082022;28;20028;-61
2022/05/30 07:55:34;;;;;;;10.95;1.80;;;12.40;99.90;;;;;;5084911;28;20036;-62
2022/05/30 07:58:04;;;;;;;7.72;1.50;;;12.60;99.90;;;;;;5080948;28;20060;-61
2022/05/30 08:00:33;;;;;;;10.15;1.80;;;12.70;99.90;;;;;;5089109;28;20448;-62
2022/05/30 08:02:59;;;;;;;8.40;1.60;;;13.00;99.90;;;;;;5087057;28;20020;-62
2022/05/30 08:05:25;;;;;;;9.48;1.40;;;12.60;99.90;;;;;;5082095;28;20034;-62
2022/05/30 08:07:52;;;;;;;9.93;1.48;;;12.70;99.90;;;;;;5083679;28;20031;-61
2022/05/30 08:10:19;;;;;;;11.40;1.73;;;13.00;99.90;;;;;;5095311;27;20051;-62
2022/05/30 08:12:46;;;;;;;10.00;1.80;;;13.30;99.90;;;;;;5087303;28;20085;-61
2022/05/30 08:15:13;;;;;;;7.07;1.40;;;13.20;99.90;;;;;;5085650;28;20035;-62
2022/05/30 08:17:38;;;;;;;6.15;1.63;;;13.60;99.90;;;;;;5090885;28;20115;-61
2022/05/30 08:20:06;;;;;;;5.97;1.30;;;13.50;99.90;;;;;;5078508;28;20127;-62
2022/05/30 08:22:34;;;;;;;7.15;1.40;;;13.60;99.90;;;;;;5081408;28;20016;-62
2022/05/30 08:25:03;;;;;;;8.48;1.70;;;13.20;99.90;;;;;;5085481;28;20429;-62
2022/05/30 08:27:29;;;;;;;8.52;1.20;;;13.40;99.90;;;;;;5084637;28;20036;-62
2022/05/30 08:29:55;;;;;;;7.97;1.42;;;14.00;99.90;;;;;;5079511;28;20030;-62
2022/05/30 08:32:20;;;;;;;13.95;1.55;;;14.10;99.90;;;;;;5081762;28;20746;-62
2022/05/30 08:34:46;;;;;;;9.65;1.83;;;14.00;99.90;;;;;;5081485;28;20030;-62
2022/05/30 08:37:11;;;;;;;5.25;1.08;;;13.90;99.90;;;;;;5078465;28;20036;-62
2022/05/30 08:42:29;;;;;;;4.28;1.17;;;14.10;99.90;;;;;;5084825;28;20143;-63
2022/05/30 08:44:57;;;;;;;4.13;1.05;;;14.00;99.90;;;;;;5076249;28;20111;-62
2022/05/30 08:47:50;;;;;;;3.72;1.00;;;13.80;99.90;;;;;;5084017;28;20494;-62
2022/05/30 08:50:43;;;;;;;8.27;1.35;;;13.30;99.90;;;;;;5082243;28;20403;-63
2022/05/30 08:53:09;;;;;;;4.23;0.93;;;13.40;99.90;;;;;;5079048;28;20442;-65
2022/05/30 08:56:06;;;;;;;5.50;1.20;;;13.40;99.90;;;;;;5077361;28;20027;-65
2022/05/30 08:58:43;;;;;;;8.82;1.30;;;13.40;99.90;;;;;;5084118;28;20056;-65
2022/05/30 09:01:17;;;;;;;5.40;1.13;;;13.20;99.90;;;;;;5086027;28;20012;-65
2022/05/30 09:04:10;;;;;;;4.43;1.08;;;13.40;99.90;;;;;;5080281;28;20037;-65
2022/05/30 09:06:47;;;;;;;16.92;9.18;;;13.70;99.90;;;;;;5078859;28;20032;-65
2022/05/30 09:09:29;;;;;;;6.28;1.33;;;14.00;99.90;;;;;;5088925;28;20543;-66
2022/05/30 09:12:04;;;;;;;5.53;1.05;;;14.60;99.90;;;;;;5082608;28;20027;-63
2022/05/30 09:14:40;;;;;;;3.95;1.20;;;15.20;99.90;;;;;;5085914;28;20484;-62
2022/05/30 09:17:12;;;;;;;2.97;0.63;;;15.50;99.90;;;;;;5077943;28;20397;-63
2022/05/30 09:19:39;;;;;;;3.87;1.10;;;15.10;99.90;;;;;;5075850;28;20541;-63
2022/05/30 09:22:07;;;;;;;3.30;0.77;;;15.00;99.90;;;;;;5079700;28;20153;-63
2022/05/30 09:24:35;;;;;;;3.95;0.88;;;15.00;99.90;;;;;;5068222;28;20028;-63
2022/05/30 09:27:02;;;;;;;3.28;0.90;;;15.20;99.90;;;;;;5077349;28;20797;-63
2022/05/30 09:29:30;;;;;;;3.83;0.85;;;15.30;99.90;;;;;;5073020;28;20175;-63
2022/05/30 09:32:14;;;;;;;4.28;0.73;;;15.50;99.90;;;;;;5075669;28;20040;-63
2022/05/30 09:34:47;;;;;;;5.65;1.17;;;15.70;99.90;;;;;;5078435;28;20029;-63
2022/05/30 09:37:34;;;;;;;5.07;0.80;;;15.90;99.90;;;;;;5081303;28;20058;-63
2022/05/30 09:40:00;;;;;;;5.60;0.95;;;15.80;99.90;;;;;;5086986;28;20449;-64
2022/05/30 09:42:32;;;;;;;4.63;0.90;;;15.60;99.90;;;;;;5087158;28;20032;-63
2022/05/30 09:45:13;;;;;;;4.45;1.00;;;15.90;99.90;;;;;;5076459;28;20031;-63
2022/05/30 09:48:00;;;;;;;4.25;0.73;;;16.30;99.90;;;;;;5073480;28;20027;-63
2022/05/30 09:50:26;;;;;;;2.13;0.75;;;16.40;99.90;;;;;;5085910;28;20618;-63
2022/05/30 09:52:52;;;;;;;5.88;1.10;;;16.30;99.90;;;;;;5076813;28;20088;-63
2022/05/30 09:55:26;;;;;;;5.35;0.85;;;15.80;99.90;;;;;;5086417;28;20152;-64
2022/05/30 09:57:54;;;;;;;8.18;1.10;;;15.90;99.90;;;;;;5088793;28;20039;-63
2022/05/30 10:00:49;;;;;;;5.35;1.10;;;15.80;99.90;;;;;;5081547;28;20016;-63
2022/05/30 10:03:36;;;;;;;5.65;0.80;;;15.40;99.90;;;;;;5086309;28;20466;-63
2022/05/30 10:06:17;;;;;;;4.85;1.10;;;15.00;99.90;;;;;;5078020;28;20020;-63
2022/05/30 10:08:43;;;;;;;3.55;1.30;;;14.90;99.90;;;;;;5086677;28;20517;-63
2022/05/30 10:11:09;;;;;;;7.05;1.10;;;15.10;99.90;;;;;;5076930;28;20020;-63
2022/05/30 10:13:41;;;;;;;3.58;0.82;;;15.30;99.90;;;;;;5073243;28;20024;-63
2022/05/30 10:16:13;;;;;;;3.97;0.88;;;14.80;99.90;;;;;;5081378;28;23105;-62
2022/05/30 10:18:54;;;;;;;5.82;1.30;;;14.30;99.90;;;;;;5082938;28;20697;-63
2022/05/30 10:21:25;;;;;;;4.65;1.00;;;14.40;99.90;;;;;;5076293;28;20621;-63
2022/05/30 10:30:31;;;;;;;4.88;1.10;;;15.20;99.90;;;;;;5085247;28;20517;-63
2022/05/30 10:33:11;;;;;;;5.10;1.17;;;15.40;99.90;;;;;;5085438;28;20040;-63
2022/05/30 10:36:07;;;;;;;4.85;1.30;;;15.60;99.90;;;;;;5081728;28;20031;-63
2022/05/30 10:38:51;;;;;;;5.35;0.98;;;15.50;99.90;;;;;;5083947;28;20483;-64
2022/05/30 10:41:25;;;;;;;3.78;1.23;;;15.70;99.90;;;;;;5092148;28;20069;-63
2022/05/30 10:44:06;;;;;;;5.00;1.23;;;15.80;99.90;;;;;;5089981;28;20028;-63
2022/05/30 10:46:39;;;;;;;3.17;0.95;;;15.90;99.90;;;;;;5080208;28;20535;-63
2022/05/30 10:49:09;;;;;;;6.18;1.40;;;16.10;99.90;;;;;;5081761;28;20035;-63
2022/05/30 10:51:44;;;;;;;6.72;1.15;;;16.00;99.90;;;;;;5084811;28;20090;-63
2022/05/30 10:54:40;;;;;;;4.50;1.52;;;;;;;;;;5080449;28;20028;-63
2022/05/30 10:57:44;;;;;;;5.38;1.30;;;16.20;99.90;;;;;;5073431;28;20036;-63
2022/05/30 11:00:14;;;;;;;3.90;1.20;;;15.90;99.90;;;;;;5090639;28;20102;-63
2022/05/30 11:03:16;;;;;;;4.00;1.02;;;15.90;99.90;;;;;;5089837;28;20521;-63
2022/05/30 11:05:54;;;;;;;4.57;1.20;;;15.40;99.90;;;;;;5094793;28;20031;-63
2022/05/30 11:08:59;;;;;;;4.30;1.10;;;16.00;99.90;;;;;;5078802;28;20084;-63
2022/05/30 11:11:57;;;;;;;6.18;1.20;;;16.40;99.90;;;;;;5062851;28;20600;-63
2022/05/30 11:14:55;;;;;;;5.35;1.00;;;16.50;99.90;;;;;;5088285;28;20107;-64
2022/05/30 11:17:30;;;;;;;3.78;1.00;;;16.80;99.90;;;;;;5090405;28;20030;-64
2022/05/30 11:20:15;;;;;;;5.88;1.15;;;16.40;99.90;;;;;;5092060;28;20592;-64
2022/05/30 11:22:45;;;;;;;6.13;1.30;;;15.80;99.90;;;;;;5096057;28;20517;-63
2022/05/30 11:25:13;;;;;;;4.40;0.98;;;16.10;99.90;;;;;;5086733;28;20093;-62
2022/05/30 11:28:03;;;;;;;5.47;0.90;;;15.70;99.90;;;;;;5093203;28;20040;-63
2022/05/30 11:30:52;;;;;;;4.38;1.00;;;15.60;99.90;;;;;;5082571;28;20522;-64
2022/05/30 11:33:24;;;;;;;3.40;1.17;;;15.80;99.90;;;;;;5094026;28;20026;-63
2022/05/30 11:36:08;;;;;;;7.50;1.52;;;16.00;99.90;;;;;;5076560;28;20039;-63
2022/05/30 11:38:35;;;;;;;6.20;1.67;;;16.30;99.90;;;;;;5080448;28;20027;-63
2022/05/30 11:41:27;;;;;;;4.47;1.20;;;16.40;99.90;;;;;;5089450;28;20030;-64
2022/05/30 11:44:04;;;;;;;5.38;1.52;;;16.40;99.90;;;;;;5085518;28;20108;-63
2022/05/30 11:46:36;;;;;;;7.47;1.40;;;16.10;99.90;;;;;;5090626;28;20504;-64
2022/05/30 11:49:45;;;;;;;7.72;1.35;;;16.20;99.90;;;;;;5093156;28;20027;-64
2022/05/30 11:52:18;;;;;;;4.72;1.38;;;15.90;99.90;;;;;;5080335;28;20089;-63
2022/05/30 11:54:56;;;;;;;5.15;1.40;;;15.70;99.90;;;;;;5084423;28;20027;-63
2022/05/30 11:57:33;;;;;;;3.50;1.02;;;15.60;99.90;;;;;;5085643;28;20044;-63
2022/05/30 12:00:14;;;;;;;5.38;1.38;;;15.70;99.90;;;;;;5087226;28;20488;-64
2022/05/30 12:02:48;;;;;;;6.70;1.20;;;15.70;99.90;;;;;;5082423;28;20036;-63
2022/05/30 12:05:39;;;;;;;5.78;1.38;;;15.30;99.90;;;;;;5079449;28;20409;-63
2022/05/30 12:08:07;;;;;;;3.50;1.00;;;14.90;99.90;;;;;;5080743;28;20040;-63
2022/05/30 12:10:36;;;;;;;7.28;1.52;;;15.50;99.90;;;;;;5085145;28;20032;-64
2022/05/30 12:13:14;;;;;;;4.78;1.10;;;15.40;99.90;;;;;;5082869;28;20032;-63
2022/05/30 12:15:57;;;;;;;5.22;1.27;;;15.30;99.90;;;;;;5079275;28;20081;-63
2022/05/30 12:24:37;;;;;;;3.88;1.05;;;16.00;99.90;;;;;;5079395;28;20055;-63
2022/05/30 12:27:09;;;;;;;6.60;1.42;;;15.50;99.90;;;;;;5090571;28;20032;-63
2022/05/30 12:29:37;;;;;;;5.22;1.30;;;15.70;99.90;;;;;;5089930;28;20559;-63
2022/05/30 12:32:09;;;;;;;2.70;1.20;;;15.70;99.90;;;;;;5088865;28;20024;-64
2022/05/30 12:35:33;;;;;;;5.35;1.10;;;15.80;99.90;;;;;;5084264;28;20036;-63
2022/05/30 12:37:58;;;;;;;5.00;1.05;;;15.90;99.90;;;;;;5093073;28;20035;-63
2022/05/30 12:40:26;;;;;;;4.05;1.52;;;16.00;99.90;;;;;;5083589;28;20073;-63
2022/05/30 12:43:06;;;;;;;2.35;1.02;;;16.30;99.90;;;;;;5089140;28;20016;-64
2022/05/30 12:45:40;;;;;;;4.80;1.35;;;16.40;99.90;;;;;;5084432;28;20374;-64
2022/05/30 12:48:27;;;;;;;5.53;1.13;;;16.70;99.90;;;;;;5087259;28;20033;-64
2022/05/30 12:50:52;;;;;;;4.15;1.33;;;16.90;99.90;;;;;;5082877;28;20031;-63
2022/05/30 12:53:24;;;;;;;7.38;1.73;;;16.70;99.90;;;;;;5076662;28;20055;-63
2022/05/30 12:55:55;;;;;;;5.22;1.20;;;16.70;99.90;;;;;;5078256;28;20052;-67
2022/05/30 12:58:42;;;;;;;4.63;1.25;;;17.00;99.90;;;;;;5084681;28;20020;-63
2022/05/30 13:01:19;;;;;;;5.85;1.23;;;16.40;99.90;;;;;;5088262;28;20481;-63
2022/05/30 13:04:06;;;;;;;4.03;1.02;;;16.60;99.90;;;;;;5082159;28;20028;-63
2022/05/30 13:06:57;;;;;;;5.63;1.10;;;17.10;99.90;;;;;;5084632;28;20547;-64
2022/05/30 13:09:33;;;;;;;2.83;1.10;;;17.40;99.90;;;;;;5088260;28;20031;-63
2022/05/30 13:12:11;;;;;;;5.88;1.17;;;17.10;99.90;;;;;;5082662;28;20035;-64
2022/05/30 13:14:36;;;;;;;4.20;1.23;;;17.40;99.90;;;;;;5088918;28;20471;-64
2022/05/30 13:17:22;;;;;;;3.10;1.00;;;17.20;99.90;;;;;;5084521;28;20036;-64
2022/05/30 13:19:59;;;;;;;3.53;1.15;;;16.20;99.90;;;;;;5088857;28;20999;-64
2022/05/30 13:22:28;;;;;;;3.85;1.13;;;16.50;99.90;;;;;;5085673;28;20536;-60
2022/05/30 13:24:54;;;;;;;4.07;0.95;;;16.30;99.90;;;;;;5081968;28;20557;-60